Craig Municipal Airport
KCRG : now visible

Airfield :











YOU CAN JOIN US ON...

 
LOGIN :

Register | Disclaimer

   EN    FR    IT 

 









Legend :    VFR   Marginal VFR   IFR   Intensive IFR   Very Intensive IFR
Visi :
Ceiling :
>= 8 km
>= 3000ft
5 to 8 km
1000 to 3000 ft
1500m to 5 km
500 to 1000 ft
800 to 1500m
200 to 500 ft
< 800m
< 200 ft
Symbols :   Thunderstorms  Fog  Heavy snow  Heavy precipitations  Wind > 20 kt






- Airport Elevation : 41 ft


KCRG - Craig Municipal

CURRENT METAR :
  • 181153Z 13003KT 10SM FEW048 15/12 A3038 RMK AO2 SLP287 T01500122 10172 20150 55001

EXPIRED METARs :
  • 181053Z AUTO 14004KT 10SM CLR 16/12 A3038 RMK AO2 SLP285 T01610122
  • 180953Z AUTO 09005KT 10SM BKN041 17/12 A3037 RMK AO2 SLP283 T01670117

TAF KCRG
Valid from the 18 at 12:00 until the 19 at 12:00 UTC


181120Z 1812/1912 10005KT P6SM BKN040
FM181400 13007KT P6SM SCT200
FM181700 15010KT P6SM SCT100
FM190100 17007KT P6SM BKN250
FM190800 21007KT P6SM VCSH OVC050



MET'MAP, your aeronautical weather chart ! - Copyright ORBIFLY December 2007 - Disclaimer

ORBIFLY MET'MAP TEAM :

Programming & Development : Alexandra Zaïnal
Concept & original design : Baudouin d'Aumeries
Assistance for programming : Marc-Olivier Méhu
Technical & hardware support : Manuel Goepfert

Contact : metmap@orbifly.com




SOURCES & CREDITS :

   NOAA       Earth
Advisory